Ever Ulysses — 9V7962 — position and weather

sailwx.info

Track history (hours):
 
Tides and Currents Weather Stations Pressure Air Temp Water Temp Dewpoint Dewpoint Depression Visibility Wind Speed Wind Dir Waves Ship Positions

Ever Ulysses

Last reported at 2016-Feb-07 23:04 UTC. Time now 2016-Feb-14 08:08 UTC.
Position N 25°20' E 120°37'.

Length 285 m; draft 11.1 m.

Type: Ship. MMSI: 564442000.

Date/timePositionNaut miles runAvg speedWind from/ knotsBaromVisibWave heightAir tempDewpointWater temp
2016-Feb-07 23:04N 25°20' E 120°37'1119.1
2016-Feb-07 22:28N 25°14' E 120°26'1919.4
2016-Feb-07 21:29N 25°05' E 120°08'2020.6
2016-Feb-07 20:30N 24°53' E 119°50'2020.4
2016-Feb-07 19:32N 24°41' E 119°33'2019.8
2016-Feb-07 18:33N 24°29' E 119°16'1918.8
2016-Feb-07 17:33N 24°18' E 118°60'1918.4
2016-Feb-07 16:32N 24°06' E 118°43'1818.2
2016-Feb-07 15:33N 23°55' E 118°28'23217.4
2016-Feb-07 02:12N 22°20' E 114°38'2414.5
2016-Feb-07 00:33N 22°34' E 114°17'1 0.7
2016-Feb-06 23:05N 22°34' E 114°16'0 0.0
2016-Feb-06 22:29N 22°34' E 114°16'0 0.0
2016-Feb-06 05:30N 22°34' E 114°16'0 0.0
2016-Feb-06 01:09N 22°34' E 114°16'2 3.9
2016-Feb-06 00:31N 22°34' E 114°19'13 5.2
2016-Feb-05 22:06N 22°24' E 114°28'712.8
2016-Feb-05 21:33N 22°18' E 114°28'1111.2
2016-Feb-05 20:33N 22°07' E 114°23'1010.3
2016-Feb-05 19:33N 22°09' E 114°12'1211.9
2016-Feb-05 18:34N 22°19' E 114°05'9 0.4
2016-Feb-04 19:33N 22°21' E 113°56'1010.5
2016-Feb-04 18:33N 22°17' E 114°06'9 9.2
2016-Feb-04 17:32N 22°10' E 114°13'9 8.9
2016-Feb-04 16:33N 22°08' E 114°22'1313.0
2016-Feb-04 15:32N 22°08' E 114°36'20111.5
2016-Feb-03 22:07N 23°33' E 117°54'1018.7
2016-Feb-03 21:33N 23°41' E 118°01'2018.7
2016-Feb-03 20:28N 23°57' E 118°14'1516.3
2016-Feb-03 19:34N 24°12' E 118°17'1414.1
2016-Feb-03 18:33N 24°23' E 118°07'8 7.5
2016-Feb-03 17:32N 24°27' E 118°00'0 0.0
2016-Feb-03 16:33N 24°27' E 118°00'0 0.0
2016-Feb-03 15:33N 24°27' E 118°00'0 0.0
2016-Feb-03 14:33N 24°27' E 118°00'0 0.0
2016-Feb-03 13:33N 24°27' E 118°00'0 0.0
2016-Feb-03 12:33N 24°27' E 118°00'0 0.0
2016-Feb-03 11:33N 24°27' E 118°00'0 0.0
2016-Feb-03 10:33N 24°27' E 118°00'0 0.0
2016-Feb-03 09:33N 24°27' E 118°00'0 0.0
2016-Feb-03 08:33N 24°27' E 118°00'0 0.0
2016-Feb-03 07:33N 24°27' E 118°00'0 0.0
2016-Feb-03 06:33N 24°27' E 118°00'0 0.0
2016-Feb-03 05:33N 24°27' E 118°00'0 0.0
2016-Feb-03 04:32N 24°27' E 118°00'0 0.0
2016-Feb-03 03:33N 24°27' E 118°00'0 0.0
2016-Feb-03 02:33N 24°27' E 118°00'0 0.0
2016-Feb-03 01:33N 24°27' E 118°00'0 0.0
2016-Feb-03 00:33N 24°27' E 118°00'0 0.0
2016-Feb-02 23:33N 24°27' E 118°00'0 0.0
2016-Feb-02 22:33N 24°27' E 118°00'0 0.2
2016-Feb-02 21:33N 24°27' E 118°00'7 6.9
2016-Feb-02 20:33N 24°23' E 118°07'7 6.8
2016-Feb-02 19:33N 24°19' E 118°12'7 7.4
2016-Feb-02 18:33N 24°14' E 118°19'7 7.2
2016-Feb-02 17:33N 24°13' E 118°26'2 1.9
2016-Feb-02 16:33N 24°13' E 118°24'8 7.9
2016-Feb-02 15:33N 24°16' E 118°32'1514.2
2016-Feb-02 14:32N 24°22' E 118°47'1814.1
2016-Feb-02 13:14N 24°28' E 119°06'913.7
2016-Feb-02 12:33N 24°31' E 119°16'  
Track history (hours):
 
Tides and Currents Weather Stations Pressure Air Temp Water Temp Dewpoint Dewpoint Depression Visibility Wind Speed Wind Dir Waves Ship Positions

Ever Ulysses

Last reported at 2016-Feb-07 23:04 UTC. Time now 2016-Feb-14 08:08 UTC.
Position N 25°20' E 120°37'.

Length 285 m; draft 11.1 m.

Type: Ship. MMSI: 564442000.

Date/timePositionNaut miles runAvg speedWind from/ knotsBaromVisibWave heightAir tempDewpointWater temp
2016-Feb-07 23:04N 25°20' E 120°37'1119.1
2016-Feb-07 22:28N 25°14' E 120°26'1919.4
2016-Feb-07 21:29N 25°05' E 120°08'2020.6
2016-Feb-07 20:30N 24°53' E 119°50'2020.4
2016-Feb-07 19:32N 24°41' E 119°33'2019.8
2016-Feb-07 18:33N 24°29' E 119°16'1918.8
2016-Feb-07 17:33N 24°18' E 118°60'1918.4
2016-Feb-07 16:32N 24°06' E 118°43'1818.2
2016-Feb-07 15:33N 23°55' E 118°28'23217.4
2016-Feb-07 02:12N 22°20' E 114°38'2414.5
2016-Feb-07 00:33N 22°34' E 114°17'1 0.7
2016-Feb-06 23:05N 22°34' E 114°16'0 0.0
2016-Feb-06 22:29N 22°34' E 114°16'0 0.0
2016-Feb-06 05:30N 22°34' E 114°16'0 0.0
2016-Feb-06 01:09N 22°34' E 114°16'2 3.9
2016-Feb-06 00:31N 22°34' E 114°19'13 5.2
2016-Feb-05 22:06N 22°24' E 114°28'712.8
2016-Feb-05 21:33N 22°18' E 114°28'1111.2
2016-Feb-05 20:33N 22°07' E 114°23'1010.3
2016-Feb-05 19:33N 22°09' E 114°12'1211.9
2016-Feb-05 18:34N 22°19' E 114°05'9 0.4
2016-Feb-04 19:33N 22°21' E 113°56'1010.5
2016-Feb-04 18:33N 22°17' E 114°06'9 9.2
2016-Feb-04 17:32N 22°10' E 114°13'9 8.9
2016-Feb-04 16:33N 22°08' E 114°22'1313.0
2016-Feb-04 15:32N 22°08' E 114°36'20111.5
2016-Feb-03 22:07N 23°33' E 117°54'1018.7
2016-Feb-03 21:33N 23°41' E 118°01'2018.7
2016-Feb-03 20:28N 23°57' E 118°14'1516.3
2016-Feb-03 19:34N 24°12' E 118°17'1414.1
2016-Feb-03 18:33N 24°23' E 118°07'8 7.5
2016-Feb-03 17:32N 24°27' E 118°00'0 0.0
2016-Feb-03 16:33N 24°27' E 118°00'0 0.0
2016-Feb-03 15:33N 24°27' E 118°00'0 0.0
2016-Feb-03 14:33N 24°27' E 118°00'0 0.0
2016-Feb-03 13:33N 24°27' E 118°00'0 0.0
2016-Feb-03 12:33N 24°27' E 118°00'0 0.0
2016-Feb-03 11:33N 24°27' E 118°00'0 0.0
2016-Feb-03 10:33N 24°27' E 118°00'0 0.0
2016-Feb-03 09:33N 24°27' E 118°00'0 0.0
2016-Feb-03 08:33N 24°27' E 118°00'0 0.0
2016-Feb-03 07:33N 24°27' E 118°00'0 0.0
2016-Feb-03 06:33N 24°27' E 118°00'0 0.0
2016-Feb-03 05:33N 24°27' E 118°00'0 0.0
2016-Feb-03 04:32N 24°27' E 118°00'0 0.0
2016-Feb-03 03:33N 24°27' E 118°00'0 0.0
2016-Feb-03 02:33N 24°27' E 118°00'0 0.0
2016-Feb-03 01:33N 24°27' E 118°00'0 0.0
2016-Feb-03 00:33N 24°27' E 118°00'0 0.0
2016-Feb-02 23:33N 24°27' E 118°00'0 0.0
2016-Feb-02 22:33N 24°27' E 118°00'0 0.2
2016-Feb-02 21:33N 24°27' E 118°00'7 6.9
2016-Feb-02 20:33N 24°23' E 118°07'7 6.8
2016-Feb-02 19:33N 24°19' E 118°12'7 7.4
2016-Feb-02 18:33N 24°14' E 118°19'7 7.2
2016-Feb-02 17:33N 24°13' E 118°26'2 1.9
2016-Feb-02 16:33N 24°13' E 118°24'8 7.9
2016-Feb-02 15:33N 24°16' E 118°32'1514.2
2016-Feb-02 14:32N 24°22' E 118°47'1814.1
2016-Feb-02 13:14N 24°28' E 119°06'913.7
2016-Feb-02 12:33N 24°31' E 119°16'  

Dump ship's entire track history